Time;durP1;ratioP1;P1;durP2;ratioP2;P2;SDS_P1;SDS_P2;PMS_P1;PMS_P2;Temp;Humidity;BMP_temperature;BMP_pressure;BME280_temperature;BME280_humidity;BME280_pressure;Samples;Min_cycle;Max_cycle;Signal;HPM_P1;HPM_P2
2022/07/31 00:02:07;;;;;;;0.00;0.00;;;18.00;99.90;;;;;;4966289;28;20057;-84
2022/07/31 00:04:34;;;;;;;0.00;0.00;;;17.90;99.90;;;;;;4968591;28;20046;-83
2022/07/31 00:07:01;;;;;;;0.00;0.00;;;17.90;99.90;;;;;;4970965;28;20039;-84
2022/07/31 00:09:29;;;;;;;0.00;0.00;;;17.90;99.90;;;;;;4970566;28;20057;-84
2022/07/31 00:12:16;;;;;;;0.00;0.00;;;17.90;99.90;;;;;;4968696;28;20054;-85
2022/07/31 00:14:43;;;;;;;0.00;0.00;;;17.80;99.90;;;;;;4967077;28;20047;-83
2022/07/31 00:17:11;;;;;;;0.00;0.00;;;17.80;99.90;;;;;;4968616;28;20078;-83
2022/07/31 00:19:38;;;;;;;0.00;0.00;;;17.80;99.90;;;;;;4968458;28;20061;-84
2022/07/31 00:22:05;;;;;;;0.00;0.00;;;17.80;99.90;;;;;;4970018;28;20287;-84
2022/07/31 00:24:32;;;;;;;0.00;0.00;;;17.70;99.90;;;;;;4969406;28;20059;-83
2022/07/31 00:26:59;;;;;;;0.00;0.00;;;17.60;99.90;;;;;;4969711;28;20046;-84
2022/07/31 00:29:26;;;;;;;0.00;0.00;;;17.60;99.90;;;;;;4970114;28;20053;-84
2022/07/31 00:31:52;;;;;;;0.00;0.00;;;17.60;99.90;;;;;;4970060;28;20113;-83
2022/07/31 00:34:21;;;;;;;0.00;0.00;;;17.40;99.90;;;;;;4971273;28;20055;-83
2022/07/31 00:36:47;;;;;;;0.00;0.00;;;17.30;99.90;;;;;;4970503;28;20047;-84
2022/07/31 00:39:15;;;;;;;0.10;0.10;;;;;;;;;;4972932;28;20562;-84
2022/07/31 00:41:44;;;;;;;0.00;0.00;;;17.40;99.90;;;;;;4972114;28;20121;-84
2022/07/31 00:44:12;;;;;;;0.00;0.00;;;17.40;99.90;;;;;;4969983;28;20496;-83
2022/07/31 00:46:39;;;;;;;0.10;0.10;;;17.40;99.90;;;;;;4972267;28;20043;-83
2022/07/31 00:49:09;;;;;;;0.00;0.00;;;17.50;99.90;;;;;;4972167;28;20451;-83
2022/07/31 00:51:38;;;;;;;0.00;0.00;;;17.50;99.90;;;;;;4973077;28;20170;-84
2022/07/31 00:54:05;;;;;;;0.00;0.00;;;17.40;99.90;;;;;;4972992;28;20043;-83
2022/07/31 00:56:32;;;;;;;0.00;0.00;;;17.50;99.90;;;;;;4970271;28;20077;-83
2022/07/31 00:58:59;;;;;;;0.00;0.00;;;17.40;99.90;;;;;;4972839;28;20491;-84
2022/07/31 01:01:26;;;;;;;0.00;0.00;;;17.20;99.90;;;;;;4985116;28;20050;-84
2022/07/31 01:03:53;;;;;;;0.03;0.03;;;17.20;99.90;;;;;;4967669;28;20822;-84
2022/07/31 01:06:20;;;;;;;0.00;0.00;;;17.20;99.90;;;;;;4973029;28;20050;-84
2022/07/31 01:08:49;;;;;;;0.00;0.00;;;17.20;99.90;;;;;;4983570;28;20050;-84
2022/07/31 01:11:26;;;;;;;0.00;0.00;;;17.20;99.90;;;;;;4969884;28;20035;-84
2022/07/31 01:13:58;;;;;;;0.00;0.00;;;15.80;99.90;;;;;;4969404;28;20046;-83
2022/07/31 01:16:29;;;;;;;0.00;0.00;;;17.00;99.90;;;;;;4971987;28;20043;-84
2022/07/31 01:18:58;;;;;;;0.00;0.00;;;17.00;99.90;;;;;;4972342;28;20494;-83
2022/07/31 01:21:33;;;;;;;0.00;0.00;;;17.00;99.90;;;;;;4969051;28;20047;-84
2022/07/31 01:24:13;;;;;;;0.00;0.00;;;17.00;99.90;;;;;;4968747;28;20050;-83
2022/07/31 01:26:48;;;;;;;0.00;0.00;;;16.90;99.90;;;;;;4969052;28;20105;-83
2022/07/31 01:29:24;;;;;;;0.00;0.00;;;16.80;99.90;;;;;;4969921;28;20411;-84
2022/07/31 01:31:57;;;;;;;0.00;0.00;;;16.80;99.90;;;;;;4969148;28;20121;-83
2022/07/31 01:34:30;;;;;;;0.00;0.00;;;16.80;99.90;;;;;;4972013;28;20450;-83
2022/07/31 01:37:04;;;;;;;0.00;0.00;;;16.80;99.90;;;;;;4970426;28;20054;-84
2022/07/31 01:39:34;;;;;;;0.00;0.00;;;16.80;99.90;;;;;;4970664;28;20492;-84
2022/07/31 01:42:05;;;;;;;0.00;0.00;;;16.80;99.90;;;;;;4971321;28;20454;-84
2022/07/31 01:44:41;;;;;;;0.10;0.10;;;16.70;99.90;;;;;;4972886;28;20503;-84
2022/07/31 01:47:09;;;;;;;0.00;0.00;;;16.70;99.90;;;;;;4966699;28;20043;-84
2022/07/31 01:49:38;;;;;;;0.00;0.00;;;16.70;99.90;;;;;;4968409;28;20046;-84
2022/07/31 01:52:06;;;;;;;0.00;0.00;;;16.70;99.90;;;;;;4968238;28;20050;-83
2022/07/31 01:54:35;;;;;;;0.00;0.00;;;16.70;99.90;;;;;;4970774;28;20062;-84
2022/07/31 01:57:03;;;;;;;0.00;0.00;;;16.40;99.90;;;;;;4971206;28;20381;-84
2022/07/31 01:59:36;;;;;;;0.00;0.00;;;16.60;99.90;;;;;;4970483;28;20462;-82
2022/07/31 02:02:08;;;;;;;0.08;0.08;;;16.50;99.90;;;;;;4967426;28;20050;-84
2022/07/31 02:04:36;;;;;;;0.00;0.00;;;16.60;99.90;;;;;;4969064;28;20410;-84
2022/07/31 02:07:04;;;;;;;0.00;0.00;;;16.50;99.90;;;;;;4973431;28;20046;-83
2022/07/31 02:09:33;;;;;;;0.00;0.00;;;16.30;99.90;;;;;;4960299;28;20066;-83
2022/07/31 02:12:01;;;;;;;0.00;0.00;;;16.30;99.90;;;;;;4987474;28;20380;-84
2022/07/31 02:14:29;;;;;;;0.00;0.00;;;16.40;99.90;;;;;;4970956;28;20053;-82
2022/07/31 02:16:58;;;;;;;0.00;0.00;;;16.40;99.90;;;;;;4967928;28;20073;-83
2022/07/31 02:19:26;;;;;;;0.00;0.00;;;16.50;99.90;;;;;;4969752;28;20046;-82
2022/07/31 02:21:58;;;;;;;0.00;0.00;;;16.40;99.90;;;;;;4972103;28;20093;-83
2022/07/31 02:24:25;;;;;;;0.00;0.00;;;16.50;99.90;;;;;;4970509;28;20062;-83
2022/07/31 02:26:52;;;;;;;0.00;0.00;;;16.40;99.90;;;;;;4967046;28;20558;-82
2022/07/31 02:29:21;;;;;;;0.00;0.00;;;16.40;99.90;;;;;;4969475;28;20117;-83
2022/07/31 02:31:50;;;;;;;0.00;0.00;;;16.40;99.90;;;;;;4966884;28;20070;-84
2022/07/31 02:34:32;;;;;;;0.00;0.00;;;16.30;99.90;;;;;;4977671;28;20035;-83
2022/07/31 02:37:00;;;;;;;0.00;0.00;;;16.10;99.90;;;;;;4970720;28;20533;-83
2022/07/31 02:39:28;;;;;;;0.00;0.00;;;16.00;99.90;;;;;;4972380;28;20047;-83
2022/07/31 02:41:58;;;;;;;0.00;0.00;;;16.00;99.90;;;;;;4969893;28;20043;-83
2022/07/31 02:44:26;;;;;;;0.00;0.00;;;16.10;99.90;;;;;;4972122;28;20047;-83
2022/07/31 02:46:54;;;;;;;0.00;0.00;;;16.10;99.90;;;;;;4970693;28;20042;-83
2022/07/31 02:49:21;;;;;;;0.00;0.00;;;16.00;99.90;;;;;;4970231;28;20101;-83
2022/07/31 02:51:49;;;;;;;0.00;0.00;;;16.00;99.90;;;;;;4967991;28;20421;-83
2022/07/31 02:54:16;;;;;;;0.00;0.00;;;16.10;99.90;;;;;;4971726;28;20073;-83
2022/07/31 02:56:45;;;;;;;0.03;0.03;;;16.10;99.90;;;;;;4970539;28;20499;-82
2022/07/31 02:59:11;;;;;;;0.00;0.00;;;16.10;99.90;;;;;;4965044;28;20209;-83
2022/07/31 03:01:38;;;;;;;0.00;0.00;;;16.10;99.90;;;;;;4969500;28;20051;-83
2022/07/31 03:04:05;;;;;;;0.00;0.00;;;16.00;99.90;;;;;;4968409;28;20046;-83
2022/07/31 03:06:32;;;;;;;0.00;0.00;;;16.00;99.90;;;;;;4970553;28;20070;-83
2022/07/31 03:09:00;;;;;;;0.00;0.00;;;16.00;99.90;;;;;;4968235;28;20506;-82
2022/07/31 03:11:27;;;;;;;0.00;0.00;;;16.10;99.90;;;;;;4967174;28;20038;-83
2022/07/31 03:13:57;;;;;;;0.00;0.00;;;16.00;99.90;;;;;;4967906;28;20043;-82
2022/07/31 03:16:25;;;;;;;0.00;0.00;;;16.10;99.90;;;;;;4971809;28;20104;-83
2022/07/31 03:18:53;;;;;;;0.00;0.00;;;16.10;99.90;;;;;;4970010;28;20038;-84
2022/07/31 03:21:22;;;;;;;0.00;0.00;;;16.20;99.90;;;;;;4965815;28;20050;-83
2022/07/31 03:23:49;;;;;;;0.08;0.08;;;16.30;99.90;;;;;;4971745;28;20098;-83
2022/07/31 03:26:17;;;;;;;0.00;0.00;;;16.40;99.90;;;;;;4969368;28;20074;-82
2022/07/31 03:28:44;;;;;;;0.00;0.00;;;16.50;99.90;;;;;;4972213;28;20051;-82
2022/07/31 03:31:11;;;;;;;0.00;0.00;;;16.30;99.90;;;;;;4965451;28;20051;-83
2022/07/31 03:33:38;;;;;;;0.00;0.00;;;16.30;99.90;;;;;;4968792;28;20082;-82
2022/07/31 03:36:06;;;;;;;0.00;0.00;;;16.20;99.90;;;;;;4968995;28;20059;-82
2022/07/31 03:38:33;;;;;;;0.00;0.00;;;16.20;99.90;;;;;;4960625;28;20046;-82
2022/07/31 03:41:17;;;;;;;0.00;0.00;;;16.20;99.90;;;;;;4968624;28;20529;-83
2022/07/31 03:43:46;;;;;;;0.00;0.00;;;16.10;99.90;;;;;;4967307;28;20050;-83
2022/07/31 03:46:17;;;;;;;0.00;0.00;;;16.20;99.90;;;;;;4969564;28;20573;-83
2022/07/31 03:48:45;;;;;;;0.08;0.08;;;16.20;99.90;;;;;;4970650;28;20047;-83
2022/07/31 03:51:13;;;;;;;0.00;0.00;;;16.20;99.90;;;;;;4968573;28;20058;-83
2022/07/31 03:53:41;;;;;;;0.00;0.00;;;16.20;99.90;;;;;;4969752;28;20049;-83
2022/07/31 03:56:10;;;;;;;0.00;0.00;;;16.30;99.90;;;;;;4969990;28;20050;-83
2022/07/31 03:58:38;;;;;;;0.00;0.00;;;16.30;99.90;;;;;;4968288;28;20042;-83
2022/07/31 04:01:06;;;;;;;0.00;0.00;;;16.30;99.90;;;;;;4966691;28;20302;-83
2022/07/31 04:03:38;;;;;;;0.00;0.00;;;16.30;99.90;;;;;;4970587;28;20499;-82
2022/07/31 04:06:05;;;;;;;0.10;0.10;;;16.30;99.90;;;;;;4972445;28;20122;-82
2022/07/31 04:08:32;;;;;;;0.00;0.00;;;16.40;99.90;;;;;;4974067;28;20055;-83
2022/07/31 04:10:59;;;;;;;0.00;0.00;;;16.40;99.90;;;;;;4969759;28;20066;-83
2022/07/31 04:13:27;;;;;;;0.00;0.00;;;16.30;99.90;;;;;;4974058;28;20042;-83
2022/07/31 04:15:55;;;;;;;0.00;0.00;;;16.30;99.90;;;;;;4971719;28;20474;-83
2022/07/31 04:18:22;;;;;;;0.00;0.00;;;16.40;99.90;;;;;;4966075;28;20443;-83
2022/07/31 04:20:48;;;;;;;0.00;0.00;;;16.50;99.90;;;;;;4974427;28;20632;-80
2022/07/31 04:23:15;;;;;;;0.00;0.00;;;16.60;99.90;;;;;;4973614;28;20105;-82
2022/07/31 04:25:42;;;;;;;0.00;0.00;;;16.70;99.90;;;;;;4973663;28;20623;-82
2022/07/31 04:28:09;;;;;;;0.00;0.00;;;18.10;99.90;;;;;;4976269;28;20097;-83
2022/07/31 04:30:37;;;;;;;0.00;0.00;;;16.80;99.90;;;;;;4970984;28;20062;-82
2022/07/31 04:33:05;;;;;;;0.00;0.00;;;16.90;99.90;;;;;;4967513;28;20059;-83
2022/07/31 04:35:32;;;;;;;0.00;0.00;;;16.90;99.90;;;;;;4969930;28;20066;-83
2022/07/31 04:37:59;;;;;;;0.00;0.00;;;16.90;99.90;;;;;;4971310;28;20146;-83
2022/07/31 04:40:26;;;;;;;0.00;0.00;;;17.00;99.90;;;;;;4974428;28;20047;-83
2022/07/31 04:42:53;;;;;;;0.00;0.00;;;17.10;99.90;;;;;;4968463;28;20054;-81
2022/07/31 04:45:19;;;;;;;0.00;0.00;;;17.10;99.90;;;;;;4972831;28;20054;-83
2022/07/31 04:47:46;;;;;;;0.00;0.00;;;17.10;99.90;;;;;;4974343;28;20043;-83
2022/07/31 04:50:14;;;;;;;0.00;0.00;;;17.20;99.90;;;;;;4971864;28;20038;-82
2022/07/31 04:52:41;;;;;;;0.00;0.00;;;17.20;99.90;;;;;;4969813;28;20478;-83
2022/07/31 04:55:09;;;;;;;0.00;0.00;;;17.30;99.90;;;;;;4974550;28;20043;-83
2022/07/31 04:57:36;;;;;;;0.00;0.00;;;17.40;99.90;;;;;;4966545;28;20406;-82
2022/07/31 05:00:04;;;;;;;0.00;0.00;;;17.40;99.90;;;;;;4972579;28;20055;-83
2022/07/31 05:02:31;;;;;;;0.00;0.00;;;17.50;99.90;;;;;;4975736;28;20510;-83
2022/07/31 05:04:58;;;;;;;0.00;0.00;;;17.60;99.90;;;;;;4974184;28;20035;-83
2022/07/31 05:07:26;;;;;;;0.10;0.10;;;17.80;99.90;;;;;;4975144;28;20054;-83
2022/07/31 05:09:55;;;;;;;0.10;0.10;;;17.90;99.90;;;;;;4970290;28;20031;-83
2022/07/31 05:12:21;;;;;;;0.00;0.00;;;17.90;99.90;;;;;;4970131;28;20051;-83
2022/07/31 05:14:48;;;;;;;0.00;0.00;;;17.90;99.90;;;;;;4985728;28;20058;-83
2022/07/31 05:17:15;;;;;;;0.00;0.00;;;18.00;99.90;;;;;;4971071;28;20049;-83
2022/07/31 05:19:42;;;;;;;0.00;0.00;;;18.00;99.90;;;;;;4972944;28;20047;-82
2022/07/31 05:22:10;;;;;;;0.00;0.00;;;18.10;99.90;;;;;;4970047;28;20651;-82
2022/07/31 05:24:39;;;;;;;0.00;0.00;;;18.20;99.90;;;;;;4990245;28;20047;-84
2022/07/31 05:27:06;;;;;;;0.00;0.00;;;;;;;;;;4971098;28;20090;-83
2022/07/31 05:29:33;;;;;;;0.00;0.00;;;18.30;99.90;;;;;;4974116;28;20042;-83
2022/07/31 05:32:00;;;;;;;0.00;0.00;;;18.30;99.90;;;;;;4968138;28;20051;-83
2022/07/31 05:34:28;;;;;;;0.00;0.00;;;18.30;99.90;;;;;;4970762;28;20141;-83
2022/07/31 05:36:56;;;;;;;0.00;0.00;;;18.20;99.90;;;;;;4982862;28;20050;-83
2022/07/31 05:39:24;;;;;;;0.00;0.00;;;18.40;99.90;;;;;;4972606;28;20043;-83
2022/07/31 05:41:52;;;;;;;0.00;0.00;;;18.40;99.90;;;;;;4967724;28;20049;-83
2022/07/31 05:44:19;;;;;;;0.00;0.00;;;18.20;99.90;;;;;;4982226;28;20059;-83
2022/07/31 05:46:45;;;;;;;0.00;0.00;;;18.10;99.90;;;;;;4970267;28;20051;-83
2022/07/31 05:49:12;;;;;;;0.10;0.10;;;18.20;99.90;;;;;;4967213;28;20473;-83
2022/07/31 05:51:42;;;;;;;0.00;0.00;;;18.20;99.90;;;;;;4966522;28;20572;-83
2022/07/31 05:54:09;;;;;;;0.00;0.00;;;18.20;99.90;;;;;;4970009;28;20059;-83
2022/07/31 05:56:36;;;;;;;0.00;0.00;;;18.40;99.90;;;;;;4968707;28;20120;-83
2022/07/31 05:59:04;;;;;;;0.00;0.00;;;18.40;99.90;;;;;;4967047;28;20047;-83
2022/07/31 06:01:31;;;;;;;0.00;0.00;;;18.40;99.90;;;;;;4973109;28;20042;-82
2022/07/31 06:03:58;;;;;;;0.00;0.00;;;18.50;99.90;;;;;;4973996;28;20082;-83
2022/07/31 06:06:25;;;;;;;0.00;0.00;;;18.60;99.90;;;;;;4976640;28;20105;-83
2022/07/31 06:08:51;;;;;;;0.00;0.00;;;18.70;99.90;;;;;;4973739;28;20046;-84
2022/07/31 06:11:18;;;;;;;0.00;0.00;;;18.70;99.90;;;;;;4973569;28;20093;-83
2022/07/31 06:13:45;;;;;;;0.00;0.00;;;18.70;99.90;;;;;;4973906;28;20058;-83
2022/07/31 06:16:14;;;;;;;0.00;0.00;;;18.80;99.90;;;;;;4973166;28;20051;-83
2022/07/31 06:18:41;;;;;;;0.00;0.00;;;19.00;99.90;;;;;;4969308;28;20040;-83
2022/07/31 06:21:08;;;;;;;0.00;0.00;;;19.00;99.90;;;;;;4973083;28;20051;-83
2022/07/31 06:23:35;;;;;;;0.00;0.00;;;19.00;99.90;;;;;;4973653;28;20051;-83
2022/07/31 06:26:02;;;;;;;0.00;0.00;;;18.90;99.90;;;;;;4973572;28;20050;-83
2022/07/31 06:28:30;;;;;;;0.00;0.00;;;18.90;99.90;;;;;;4972051;28;20178;-84
2022/07/31 06:31:20;;;;;;;0.00;0.00;;;19.00;99.90;;;;;;4968350;28;20057;-83
2022/07/31 06:33:48;;;;;;;0.00;0.00;;;19.10;99.90;;;;;;4971243;28;20073;-83
2022/07/31 06:36:16;;;;;;;0.00;0.00;;;19.20;99.90;;;;;;4973073;28;20535;-84
2022/07/31 06:38:42;;;;;;;0.00;0.00;;;19.30;99.90;;;;;;4971834;28;20043;-85
2022/07/31 06:41:09;;;;;;;0.00;0.00;;;19.30;99.90;;;;;;4970674;28;20721;-83
2022/07/31 06:43:36;;;;;;;0.00;0.00;;;19.40;99.90;;;;;;4988630;28;20072;-82
2022/07/31 06:46:03;;;;;;;0.00;0.00;;;19.20;99.90;;;;;;4972550;28;20550;-84
2022/07/31 06:48:31;;;;;;;0.00;0.00;;;19.00;99.90;;;;;;4969307;28;20055;-84
2022/07/31 06:50:58;;;;;;;0.00;0.00;;;19.10;99.90;;;;;;4973727;28;20550;-84
2022/07/31 06:53:45;;;;;;;0.00;0.00;;;19.40;99.90;;;;;;4970728;28;20049;-84
2022/07/31 06:56:11;;;;;;;0.00;0.00;;;19.60;99.90;;;;;;4971639;28;20043;-84
2022/07/31 06:58:38;;;;;;;0.00;0.00;;;19.90;99.90;;;;;;4971767;28;20578;-83
2022/07/31 07:01:05;;;;;;;0.00;0.00;;;20.20;99.90;;;;;;4975028;28;20585;-84
2022/07/31 07:03:33;;;;;;;0.00;0.00;;;20.40;99.90;;;;;;4968149;28;20051;-84
2022/07/31 07:06:02;;;;;;;0.00;0.00;;;20.70;99.90;;;;;;4968806;28;20058;-84
2022/07/31 07:08:29;;;;;;;0.00;0.00;;;20.90;99.90;;;;;;4972243;28;20043;-84
2022/07/31 07:10:55;;;;;;;0.00;0.00;;;21.10;99.90;;;;;;4969192;28;20054;-84
2022/07/31 07:13:22;;;;;;;0.00;0.00;;;21.30;99.90;;;;;;4970638;28;20078;-84
2022/07/31 07:16:09;;;;;;;0.00;0.00;;;21.50;99.90;;;;;;4973543;28;20056;-84
2022/07/31 07:18:39;;;;;;;0.00;0.00;;;21.40;99.90;;;;;;4971817;28;20061;-84
2022/07/31 07:21:06;;;;;;;0.00;0.00;;;;;;;;;;4972612;28;20050;-84
2022/07/31 07:23:34;;;;;;;0.00;0.00;;;21.70;99.90;;;;;;4968551;28;20065;-84
2022/07/31 07:26:01;;;;;;;0.00;0.00;;;21.90;99.90;;;;;;4971860;28;20058;-84
2022/07/31 07:28:28;;;;;;;0.00;0.00;;;22.00;99.90;;;;;;4970218;28;20051;-84
2022/07/31 07:30:57;;;;;;;0.00;0.00;;;22.00;99.90;;;;;;4973086;28;20046;-84
2022/07/31 07:33:23;;;;;;;0.00;0.00;;;22.20;99.90;;;;;;4967794;28;20503;-84
2022/07/31 07:36:10;;;;;;;0.00;0.00;;;22.20;99.90;;;;;;4973278;28;20463;-84
2022/07/31 07:38:50;;;;;;;0.00;0.00;;;22.30;99.90;;;;;;4969968;28;20046;-84
2022/07/31 07:41:17;;;;;;;0.00;0.00;;;22.20;99.90;;;;;;4971611;28;20167;-84
2022/07/31 07:43:44;;;;;;;0.00;0.00;;;22.20;99.90;;;;;;4972287;28;20046;-84
2022/07/31 07:46:17;;;;;;;0.00;0.00;;;22.20;99.90;;;;;;4973227;28;20105;-83
2022/07/31 07:48:44;;;;;;;0.00;0.00;;;22.20;99.90;;;;;;4970780;28;20035;-84
2022/07/31 07:51:12;;;;;;;0.00;0.00;;;23.60;99.90;;;;;;4972699;28;20074;-83
2022/07/31 07:53:39;;;;;;;0.00;0.00;;;22.10;99.90;;;;;;4969744;28;20047;-83
2022/07/31 07:56:06;;;;;;;0.00;0.00;;;22.00;99.90;;;;;;4971404;28;20039;-83
2022/07/31 07:58:33;;;;;;;0.00;0.00;;;;;;;;;;4972294;28;20562;-84
2022/07/31 08:01:00;;;;;;;0.00;0.00;;;22.10;99.90;;;;;;4972613;28;20101;-83
2022/07/31 08:03:27;;;;;;;0.00;0.00;;;22.10;99.90;;;;;;4971261;28;20055;-84
2022/07/31 08:06:15;;;;;;;0.00;0.00;;;22.20;99.90;;;;;;4971728;28;20484;-83
2022/07/31 08:08:42;;;;;;;0.00;0.00;;;22.20;99.90;;;;;;4972275;28;20046;-84
2022/07/31 08:11:09;;;;;;;0.00;0.00;;;22.10;99.90;;;;;;4971803;28;20050;-84
2022/07/31 08:13:43;;;;;;;0.00;0.00;;;22.20;99.90;;;;;;4971005;28;20042;-84
2022/07/31 08:16:16;;;;;;;0.00;0.00;;;22.30;99.90;;;;;;4968421;28;20050;-84
2022/07/31 08:18:43;;;;;;;0.00;0.00;;;22.20;99.90;;;;;;4969403;28;20089;-84
2022/07/31 08:21:09;;;;;;;0.00;0.00;;;22.30;99.90;;;;;;4971704;28;20055;-83
2022/07/31 08:23:38;;;;;;;0.00;0.00;;;22.50;99.90;;;;;;4968779;28;20527;-84
2022/07/31 08:26:07;;;;;;;0.00;0.00;;;22.80;99.90;;;;;;4970877;28;20054;-83
2022/07/31 08:28:34;;;;;;;0.00;0.00;;;23.00;99.90;;;;;;4972310;28;20062;-82
2022/07/31 08:31:02;;;;;;;0.00;0.00;;;23.20;99.90;;;;;;4971050;28;20101;-84
2022/07/31 08:33:29;;;;;;;0.00;0.00;;;23.40;99.30;;;;;;4972042;28;20090;-83
2022/07/31 08:35:56;;;;;;;0.00;0.00;;;;;;;;;;4971150;28;20089;-83
2022/07/31 08:38:23;;;;;;;0.00;0.00;;;23.80;98.40;;;;;;4972750;28;20039;-83
2022/07/31 08:40:51;;;;;;;0.00;0.00;;;24.10;98.20;;;;;;4972080;28;20043;-83
2022/07/31 08:43:18;;;;;;;0.00;0.00;;;24.00;98.60;;;;;;4970806;28;20054;-83
2022/07/31 08:46:06;;;;;;;0.00;0.00;;;25.10;97.10;;;;;;4972491;28;20101;-84
2022/07/31 08:48:38;;;;;;;0.00;0.00;;;24.30;96.20;;;;;;4970690;28;20043;-84
2022/07/31 08:51:06;;;;;;;0.00;0.00;;;24.50;95.40;;;;;;4965509;28;20046;-83
2022/07/31 08:53:35;;;;;;;0.00;0.00;;;24.40;95.50;;;;;;4975659;28;20047;-83
2022/07/31 08:56:04;;;;;;;;;;;24.50;95.00;;;;;;4972272;28;20049;-83
2022/07/31 08:58:31;;;;;;;0.00;0.00;;;24.50;96.00;;;;;;4973893;28;19926;-85
2022/07/31 09:01:05;;;;;;;0.00;0.00;;;24.60;95.00;;;;;;4972541;28;20050;-84
2022/07/31 09:03:33;;;;;;;0.00;0.00;;;24.60;94.20;;;;;;4975526;28;20509;-84
2022/07/31 09:06:00;;;;;;;0.00;0.00;;;26.30;95.60;;;;;;4974136;28;20050;-84
2022/07/31 09:08:30;;;;;;;0.00;0.00;;;25.00;93.50;;;;;;4975210;28;20483;-84
2022/07/31 09:11:06;;;;;;;0.00;0.00;;;25.00;93.60;;;;;;4975947;28;20050;-84
2022/07/31 09:13:36;;;;;;;0.00;0.00;;;25.00;93.90;;;;;;4974751;28;20465;-83
2022/07/31 09:16:03;;;;;;;0.00;0.00;;;25.00;94.10;;;;;;4975121;28;20455;-85
2022/07/31 09:18:31;;;;;;;0.00;0.00;;;25.10;92.90;;;;;;4975276;28;20046;-84
2022/07/31 09:20:59;;;;;;;0.00;0.00;;;25.00;92.90;;;;;;4975591;28;20043;-84
2022/07/31 09:23:29;;;;;;;0.00;0.00;;;25.10;93.90;;;;;;4969687;28;20058;-84
2022/07/31 09:25:58;;;;;;;0.00;0.00;;;27.10;94.50;;;;;;4973936;28;20047;-85
2022/07/31 09:28:35;;;;;;;0.00;0.00;;;25.30;93.90;;;;;;4990336;28;20039;-84
2022/07/31 09:31:02;;;;;;;0.00;0.00;;;25.50;93.10;;;;;;4972751;28;20528;-85
2022/07/31 09:33:30;;;;;;;0.00;0.00;;;25.70;94.30;;;;;;4973799;28;20562;-84
2022/07/31 09:35:58;;;;;;;0.00;0.00;;;25.70;92.90;;;;;;4975200;28;20058;-84
2022/07/31 09:38:31;;;;;;;0.00;0.00;;;25.70;93.40;;;;;;4973119;28;20074;-82
2022/07/31 09:41:08;;;;;;;0.00;0.00;;;25.90;93.30;;;;;;4975044;28;20051;-82
2022/07/31 09:57:14;;;;;;;0.00;0.00;;;26.40;93.00;;;;;;4953214;28;20039;-84
2022/07/31 09:59:41;;;;;;;0.00;0.00;;;26.50;93.30;;;;;;4938229;29;20134;-84
2022/07/31 10:02:08;;;;;;;0.00;0.00;;;;;;;;;;4953148;28;20051;-84
2022/07/31 10:04:38;;;;;;;0.00;0.00;;;26.40;93.10;;;;;;4955283;28;20054;-84
2022/07/31 10:07:04;;;;;;;0.00;0.00;;;26.50;93.40;;;;;;4955691;28;20546;-84
2022/07/31 10:09:33;;;;;;;0.00;0.00;;;26.50;92.80;;;;;;4955768;28;20047;-84
2022/07/31 10:12:01;;;;;;;0.00;0.00;;;26.50;93.00;;;;;;4952271;28;20102;-84
2022/07/31 10:14:33;;;;;;;0.00;0.00;;;26.60;93.20;;;;;;4938024;29;20460;-84
2022/07/31 10:17:03;;;;;;;0.00;0.00;;;26.80;92.00;;;;;;4955170;28;20054;-84
2022/07/31 10:19:33;;;;;;;0.00;0.00;;;26.90;92.80;;;;;;4934766;29;20046;-84
2022/07/31 10:22:03;;;;;;;0.00;0.00;;;27.20;90.90;;;;;;4950865;28;20047;-84
2022/07/31 10:24:31;;;;;;;0.00;0.00;;;27.10;91.00;;;;;;4955374;28;20054;-84
2022/07/31 10:26:59;;;;;;;0.00;0.00;;;27.30;92.10;;;;;;4953087;28;20067;-84
2022/07/31 10:29:35;;;;;;;0.00;0.00;;;27.40;90.50;;;;;;4954608;28;20294;-83
2022/07/31 10:32:02;;;;;;;0.00;0.00;;;27.60;91.60;;;;;;4936643;29;20046;-84
2022/07/31 10:34:31;;;;;;;0.00;0.00;;;27.50;91.20;;;;;;4956022;28;20058;-84
2022/07/31 10:37:06;;;;;;;0.00;0.00;;;27.60;90.50;;;;;;4936107;28;20055;-83
2022/07/31 10:39:44;;;;;;;0.00;0.00;;;27.60;91.40;;;;;;4955187;28;20129;-85
2022/07/31 10:42:21;;;;;;;0.00;0.00;;;27.40;87.80;;;;;;4954703;28;20078;-84
2022/07/31 10:45:01;;;;;;;0.00;0.00;;;27.40;88.10;;;;;;4953336;28;20420;-85
2022/07/31 10:47:28;;;;;;;0.00;0.00;;;27.20;89.00;;;;;;4939138;29;20051;-85
2022/07/31 10:49:55;;;;;;;0.00;0.00;;;27.10;89.80;;;;;;4936051;28;20495;-84
2022/07/31 10:52:26;;;;;;;0.00;0.00;;;27.10;90.80;;;;;;4936758;29;20047;-82
2022/07/31 10:54:57;;;;;;;0.00;0.00;;;27.20;90.90;;;;;;4952531;28;20050;-84
2022/07/31 10:57:26;;;;;;;0.00;0.00;;;27.30;90.20;;;;;;4952473;28;20491;-83
2022/07/31 10:59:54;;;;;;;0.00;0.00;;;27.20;89.70;;;;;;4954657;28;20043;-84
2022/07/31 11:02:29;;;;;;;0.00;0.00;;;27.40;90.70;;;;;;4956199;28;20098;-82
2022/07/31 11:05:07;;;;;;;0.00;0.00;;;28.60;90.80;;;;;;4954301;28;20464;-84
2022/07/31 11:07:33;;;;;;;0.00;0.00;;;27.60;90.50;;;;;;4954273;28;20114;-84
2022/07/31 11:10:16;;;;;;;0.00;0.00;;;27.80;90.40;;;;;;4953328;28;20047;-83
2022/07/31 11:12:43;;;;;;;0.00;0.00;;;27.90;89.80;;;;;;4936774;28;20464;-85
2022/07/31 11:15:22;;;;;;;0.00;0.00;;;27.70;90.80;;;;;;4937165;29;20051;-85
2022/07/31 11:17:49;;;;;;;0.00;0.00;;;27.70;91.40;;;;;;4952636;28;20499;-85
2022/07/31 11:20:36;;;;;;;0.00;0.00;;;27.60;90.40;;;;;;4951659;28;20047;-85
2022/07/31 11:23:05;;;;;;;0.00;0.00;;;27.80;90.30;;;;;;4954390;28;20087;-85
2022/07/31 11:25:35;;;;;;;0.00;0.00;;;27.90;89.90;;;;;;4954683;28;20098;-83
2022/07/31 11:28:13;;;;;;;0.00;0.00;;;27.80;90.20;;;;;;4954059;28;20121;-83
2022/07/31 11:30:49;;;;;;;0.00;0.00;;;27.80;90.50;;;;;;4950254;28;20055;-83
2022/07/31 11:33:30;;;;;;;0.00;0.00;;;27.70;88.10;;;;;;4948519;28;20055;-83
2022/07/31 11:36:10;;;;;;;0.00;0.00;;;27.30;89.10;;;;;;4953749;28;20114;-83
2022/07/31 11:38:39;;;;;;;0.00;0.00;;;27.40;89.70;;;;;;4952029;28;20108;-84
2022/07/31 11:41:07;;;;;;;0.00;0.00;;;27.40;90.70;;;;;;4952595;28;20106;-84
2022/07/31 11:43:39;;;;;;;0.00;0.00;;;27.40;90.80;;;;;;4954101;28;20508;-84
2022/07/31 11:46:07;;;;;;;0.00;0.00;;;27.00;88.30;;;;;;4953691;28;20043;-84
2022/07/31 11:48:37;;;;;;;0.00;0.00;;;27.10;91.40;;;;;;4953288;28;20495;-82
2022/07/31 11:51:16;;;;;;;0.00;0.00;;;27.20;91.50;;;;;;4964689;28;20043;-83
2022/07/31 11:53:42;;;;;;;0.00;0.00;;;27.30;90.20;;;;;;4943939;28;20098;-85
2022/07/31 11:56:10;;;;;;;0.00;0.00;;;27.20;88.20;;;;;;4935292;29;20055;-84
2022/07/31 11:58:40;;;;;;;0.00;0.00;;;;;;;;;;4954049;28;20110;-85
2022/07/31 12:01:08;;;;;;;0.00;0.00;;;26.70;90.30;;;;;;4955335;28;20028;-85
2022/07/31 12:03:37;;;;;;;0.00;0.00;;;26.70;90.60;;;;;;4953393;28;20094;-84
2022/07/31 12:06:05;;;;;;;0.00;0.00;;;26.80;90.50;;;;;;4954138;28;20051;-85
2022/07/31 12:08:34;;;;;;;0.00;0.00;;;27.00;90.00;;;;;;4937029;29;20467;-85
2022/07/31 12:11:02;;;;;;;0.00;0.00;;;26.90;90.60;;;;;;4936166;29;20500;-85
2022/07/31 12:13:31;;;;;;;0.00;0.00;;;26.80;91.10;;;;;;4949828;28;20055;-85
2022/07/31 12:16:01;;;;;;;0.00;0.00;;;26.60;91.30;;;;;;4938119;28;20039;-84
2022/07/31 12:18:32;;;;;;;0.00;0.00;;;26.50;91.80;;;;;;4953408;28;20074;-84
2022/07/31 12:21:02;;;;;;;0.00;0.00;;;26.30;91.10;;;;;;4951399;28;20043;-85
2022/07/31 12:23:39;;;;;;;0.00;0.00;;;26.50;92.50;;;;;;4953511;28;20039;-84
2022/07/31 12:26:11;;;;;;;0.00;0.00;;;26.40;92.70;;;;;;4957344;28;20047;-85
2022/07/31 12:28:39;;;;;;;0.00;0.00;;;26.50;92.20;;;;;;4954391;28;20059;-85
2022/07/31 12:31:06;;;;;;;0.00;0.00;;;26.40;93.10;;;;;;4941039;29;20381;-85
2022/07/31 12:33:41;;;;;;;0.00;0.00;;;26.30;94.30;;;;;;4956833;28;20388;-85
2022/07/31 12:36:12;;;;;;;0.00;0.00;;;26.30;93.30;;;;;;4969033;28;20055;-84
2022/07/31 12:38:39;;;;;;;0.00;0.00;;;26.40;93.10;;;;;;4939965;28;20039;-84
2022/07/31 12:41:11;;;;;;;0.00;0.00;;;26.60;93.40;;;;;;4936776;29;20051;-84
2022/07/31 12:43:38;;;;;;;0.00;0.00;;;26.70;93.20;;;;;;4939225;28;20098;-84
2022/07/31 12:46:17;;;;;;;;;;;26.70;93.60;;;;;;4942899;29;20049;-85
2022/07/31 12:48:45;;;;;;;0.00;0.00;;;26.80;96.10;;;;;;4939006;28;20453;-85
2022/07/31 12:51:12;;;;;;;0.00;0.00;;;27.00;94.40;;;;;;4957625;28;20044;-83
2022/07/31 12:53:39;;;;;;;0.00;0.00;;;27.10;93.60;;;;;;4970540;28;20047;-84
2022/07/31 12:56:09;;;;;;;0.00;0.00;;;27.00;94.70;;;;;;4956222;28;20059;-84
2022/07/31 12:58:36;;;;;;;0.00;0.00;;;27.20;94.60;;;;;;4956773;28;20110;-84
2022/07/31 13:01:03;;;;;;;0.00;0.00;;;27.30;93.30;;;;;;4959380;28;20043;-85
2022/07/31 13:03:30;;;;;;;0.00;0.00;;;27.40;93.70;;;;;;4956156;28;20058;-84
2022/07/31 13:06:12;;;;;;;0.00;0.00;;;27.40;94.30;;;;;;4938064;28;20051;-84
2022/07/31 13:08:39;;;;;;;0.00;0.00;;;27.60;93.50;;;;;;4939840;28;20074;-85
2022/07/31 13:11:06;;;;;;;0.00;0.00;;;27.70;93.40;;;;;;4956992;28;20039;-86
2022/07/31 13:13:33;;;;;;;0.00;0.00;;;27.60;92.90;;;;;;4955882;28;20504;-85
2022/07/31 13:16:00;;;;;;;0.00;0.00;;;27.50;92.50;;;;;;4947667;28;20059;-84